Time;durP1;ratioP1;P1;durP2;ratioP2;P2;SDS_P1;SDS_P2;PMS_P1;PMS_P2;Temp;Humidity;BMP_temperature;BMP_pressure;BME280_temperature;BME280_humidity;BME280_pressure;Samples;Min_cycle;Max_cycle;Signal;HPM_P1;HPM_P2
2022/06/11 00:02:03;;;;;;;21.20;9.97;;;;;;;17.78;73.80;100871.85;1704962;81;26103;-56
2022/06/11 00:04:38;;;;;;;20.82;10.23;;;;;;;17.72;73.95;100873.42;1711233;81;27483;-56
2022/06/11 00:07:09;;;;;;;16.05;11.50;;;;;;;17.66;74.37;100870.08;1716975;81;25970;-56
2022/06/11 00:09:37;;;;;;;22.82;12.40;;;;;;;17.59;75.27;100869.11;1721059;83;25782;-56
2022/06/11 00:12:06;;;;;;;20.60;12.65;;;;;;;17.51;74.67;100869.50;1720885;83;26411;-56
2022/06/11 00:14:34;;;;;;;19.67;13.83;;;;;;;17.43;74.76;100866.83;1696259;82;25844;-56
2022/06/11 00:17:06;;;;;;;24.60;12.30;;;;;;;17.36;75.08;100867.19;1708332;83;27482;-56
2022/06/11 00:19:35;;;;;;;25.90;12.17;;;;;;;17.32;74.92;100865.87;1715318;81;25748;-56
2022/06/11 00:22:04;;;;;;;19.27;10.72;;;;;;;17.34;75.16;100866.55;1714100;81;25771;-56
2022/06/11 00:24:32;;;;;;;20.27;11.88;;;;;;;17.34;75.77;100871.98;1711955;81;26064;-56
2022/06/11 00:27:01;;;;;;;14.90;9.58;;;;;;;17.33;75.30;100868.41;1701845;82;25823;-55
2022/06/11 00:29:32;;;;;;;14.25;9.80;;;;;;;17.34;75.43;100867.37;1705253;83;27532;-57
2022/06/11 00:31:59;;;;;;;19.45;9.83;;;;;;;17.25;75.18;100871.16;1720782;83;25737;-56
2022/06/11 00:34:27;;;;;;;19.90;9.13;;;;;;;17.15;75.45;100876.83;1737076;81;25742;-57
2022/06/11 00:36:55;;;;;;;18.73;8.73;;;;;;;17.10;75.71;100874.30;1729204;81;26119;-54
2022/06/11 00:39:27;;;;;;;19.60;9.35;;;;;;;17.04;76.05;100882.65;1727883;81;25788;-55
2022/06/11 00:42:02;;;;;;;17.20;9.83;;;;;;;17.02;75.88;100877.89;1733478;81;27666;-55
2022/06/11 00:44:29;;;;;;;12.53;8.95;;;;;;;17.04;75.92;100877.22;1725482;81;25730;-55
2022/06/11 00:47:19;;;;;;;17.65;9.23;;;;;;;17.11;76.50;100882.80;1736757;81;25836;-56
2022/06/11 00:49:51;;;;;;;22.27;8.85;;;;;;;17.12;75.92;100883.97;1720431;83;26063;-55
2022/06/11 00:52:38;;;;;;;15.53;8.48;;;;;;;17.16;75.71;100892.13;1697190;83;25712;-55
2022/06/11 00:55:16;;;;;;;14.45;9.18;;;;;;;17.14;75.35;100884.65;1690507;84;27485;-55
2022/06/11 00:58:03;;;;;;;13.00;7.83;;;;;;;17.03;75.78;100889.10;1718565;83;25818;-55
2022/06/11 01:00:40;;;;;;;12.53;8.58;;;;;;;16.88;76.12;100898.46;1704556;83;25847;-56
2022/06/11 01:03:11;;;;;;;14.95;7.55;;;;;;;16.85;76.16;100891.52;1717097;82;26900;-55
2022/06/11 01:05:43;;;;;;;11.20;6.95;;;;;;;16.90;76.39;100884.20;1698350;83;25856;-56
2022/06/11 01:08:27;;;;;;;14.65;7.78;;;;;;;16.97;76.14;100889.81;1720671;83;27348;-55
2022/06/11 01:11:18;;;;;;;12.70;7.12;;;;;;;16.95;76.24;100887.78;1691094;84;25709;-55
2022/06/11 01:13:59;;;;;;;9.00;6.25;;;;;;;16.94;76.18;100891.52;1710724;83;26489;-56
2022/06/11 01:16:58;;;;;;;12.23;7.20;;;;;;;16.88;76.36;100888.95;1712308;82;26275;-54
2022/06/11 01:20:09;;;;;;;13.30;6.50;;;;;;;16.85;76.51;100887.44;1710677;83;25899;-55
2022/06/11 01:23:03;;;;;;;16.82;7.90;;;;;;;16.87;76.28;100889.48;1707938;83;27557;-55
2022/06/11 01:25:58;;;;;;;14.85;8.03;;;;;;;16.88;77.24;100886.23;1707991;83;25687;-56
2022/06/11 01:28:36;;;;;;;15.20;8.55;;;;;;;16.85;76.27;100892.04;1695042;83;25785;-55
2022/06/11 01:31:23;;;;;;;13.72;8.23;;;;;;;16.76;76.63;100891.72;1715070;82;26267;-55
2022/06/11 01:34:04;;;;;;;12.60;7.53;;;;;;;16.68;76.72;100889.34;1717213;82;26091;-55
2022/06/11 01:36:39;;;;;;;16.57;7.22;;;;;;;16.70;77.35;100883.76;1715538;82;27504;-55
2022/06/11 01:39:45;;;;;;;20.97;7.75;;;;;;;16.68;77.21;100885.80;1728875;81;25817;-55
2022/06/11 01:42:26;;;;;;;11.48;6.28;;;;;;;16.69;77.00;100894.28;1723648;82;25889;-55
2022/06/11 01:45:10;;;;;;;15.53;6.40;;;;;;;16.65;76.71;100892.42;1721242;82;26130;-55
2022/06/11 01:47:38;;;;;;;12.10;6.75;;;;;;;16.54;77.24;100886.83;1677909;84;25911;-57
2022/06/11 01:50:07;;;;;;;9.78;6.17;;;;;;;16.51;77.30;100892.62;1701122;83;27319;-56
2022/06/11 01:53:01;;;;;;;14.00;6.60;;;;;;;16.52;77.86;100890.25;1728554;81;25795;-56
2022/06/11 01:55:42;;;;;;;18.45;5.92;;;;;;;16.53;77.32;100892.44;1744863;81;25894;-56
2022/06/11 01:58:17;;;;;;;17.23;6.22;;;;;;;16.54;77.43;100892.25;1744325;81;26327;-56
2022/06/11 02:01:07;;;;;;;12.25;6.08;;;;;;;16.56;77.55;100889.39;1741155;81;25492;-56
2022/06/11 02:03:57;;;;;;;15.95;5.92;;;;;;;16.59;77.57;100891.73;1730876;81;27537;-56
2022/06/11 02:06:49;;;;;;;13.10;6.47;;;;;;;16.64;77.35;100904.80;1745550;81;25894;-56
2022/06/11 02:09:27;;;;;;;15.50;6.40;;;;;;;16.66;77.18;100900.05;1737145;81;25799;-55
2022/06/11 02:12:20;;;;;;;8.70;6.22;;;;;;;16.63;76.91;100895.81;1731849;82;26110;-56
2022/06/11 02:15:11;;;;;;;23.25;6.83;;;;;;;16.63;76.83;100900.41;1732177;81;32433;-56
2022/06/11 02:17:42;;;;;;;16.05;6.30;;;;;;;16.65;76.85;100892.92;1734571;81;26950;-57
2022/06/11 02:20:19;;;;;;;9.78;5.47;;;;;;;16.66;76.70;100895.48;1740923;81;25448;-56
2022/06/11 02:22:58;;;;;;;11.80;6.37;;;;;;;16.69;76.57;100899.19;1738868;81;25913;-56
2022/06/11 02:25:33;;;;;;;16.40;6.12;;;;;;;16.72;76.54;100904.28;1748732;81;26218;-55
2022/06/11 02:28:05;;;;;;;13.32;6.22;;;;;;;16.73;76.32;100901.05;1742243;80;25492;-55
2022/06/11 02:30:34;;;;;;;11.78;6.10;;;;;;;16.74;76.38;100901.38;1737508;81;27479;-55
2022/06/11 02:33:02;;;;;;;13.85;5.62;;;;;;;16.74;76.11;100904.10;1692558;83;25919;-54
2022/06/11 02:35:49;;;;;;;14.00;6.62;;;;;;;16.73;76.09;100903.27;1711418;83;25871;-56
2022/06/11 02:38:21;;;;;;;25.60;6.37;;;;;;;16.74;76.14;100909.53;1731345;81;26117;-55
2022/06/11 02:40:53;;;;;;;18.98;6.05;;;;;;;16.74;76.02;100911.76;1747559;81;25842;-56
2022/06/11 02:43:21;;;;;;;12.78;5.92;;;;;;;16.73;75.89;100908.70;1733912;81;27680;-55
2022/06/11 02:45:48;;;;;;;13.70;5.87;;;;;;;16.76;76.11;100906.66;1733485;81;25912;-55
2022/06/11 02:48:15;;;;;;;17.48;6.60;;;;;;;16.78;75.97;100914.97;1726284;81;25678;-55
2022/06/11 02:50:46;;;;;;;10.18;5.83;;;;;;;16.78;75.62;100908.67;1734860;80;26158;-55
2022/06/11 02:53:15;;;;;;;13.90;5.87;;;;;;;16.79;75.46;100909.02;1765607;80;25750;-56
2022/06/11 02:55:45;;;;;;;10.88;5.87;;;;;;;16.78;75.42;100909.54;1755509;81;27443;-55
2022/06/11 02:58:13;;;;;;;20.08;6.50;;;;;;;16.76;75.48;100911.58;1756217;81;25842;-55
2022/06/11 03:00:45;;;;;;;14.05;6.40;;;;;;;16.78;75.42;100910.03;1747463;81;25447;-55
2022/06/11 03:03:12;;;;;;;12.82;6.22;;;;;;;16.78;75.61;100908.67;1739769;82;26142;-59
2022/06/11 03:05:39;;;;;;;12.53;5.97;;;;;;;16.79;75.55;100911.23;1742474;82;26168;-55
2022/06/11 03:08:08;;;;;;;16.20;6.78;;;;;;;16.81;75.50;100910.53;1740679;81;28288;-55
2022/06/11 03:10:36;;;;;;;9.98;6.33;;;;;;;16.83;75.39;100911.73;1740577;81;25466;-55
2022/06/11 03:13:03;;;;;;;13.60;6.78;;;;;;;16.85;75.61;100911.06;1760480;80;25724;-55
2022/06/11 03:15:30;;;;;;;10.88;7.03;;;;;;;16.86;75.83;100908.65;1767037;80;26212;-56
2022/06/11 03:17:58;;;;;;;11.12;6.42;;;;;;;16.88;75.88;100906.61;1763025;80;25941;-56
2022/06/11 03:20:29;;;;;;;21.75;7.40;;;;;;;16.92;75.92;100908.47;1739823;81;27581;-56
2022/06/11 03:22:57;;;;;;;10.72;6.72;;;;;;;16.96;75.82;100905.78;1741890;81;25800;-56
2022/06/11 03:25:24;;;;;;;10.18;6.60;;;;;;;17.00;75.88;100907.97;1740261;81;25477;-55
2022/06/11 03:27:51;;;;;;;8.43;5.67;;;;;;;17.03;75.75;100902.69;1743119;82;26126;-53
2022/06/11 03:30:19;;;;;;;9.93;5.95;;;;;;;17.08;75.77;100908.44;1693985;83;25670;-55
2022/06/11 03:32:46;;;;;;;13.90;6.37;;;;;;;17.12;76.02;100908.44;1703394;83;28344;-55
2022/06/11 03:35:14;;;;;;;10.82;5.85;;;;;;;17.16;75.75;100913.87;1716639;82;25953;-55
2022/06/11 03:37:41;;;;;;;15.20;5.47;;;;;;;17.15;75.94;100911.30;1704963;83;25660;-55
2022/06/11 03:40:10;;;;;;;20.32;6.40;;;;;;;17.14;76.29;100913.19;1704955;82;25932;-56
2022/06/11 03:42:37;;;;;;;9.48;5.95;;;;;;;17.14;75.86;100915.91;1703961;83;25852;-55
2022/06/11 03:45:07;;;;;;;13.58;6.35;;;;;;;17.13;75.96;100911.98;1703503;82;27538;-56
2022/06/11 03:47:36;;;;;;;16.80;6.62;;;;;;;17.12;75.83;100919.31;1701703;82;25680;-56
2022/06/11 03:50:11;;;;;;;16.30;6.65;;;;;;;17.12;75.79;100912.51;1704930;82;25861;-55
2022/06/11 03:52:38;;;;;;;14.38;5.95;;;;;;;17.14;75.83;100915.91;1712430;83;26358;-55
2022/06/11 03:55:07;;;;;;;16.85;5.72;;;;;;;17.20;76.03;100925.23;1702653;83;25869;-55
2022/06/11 03:57:35;;;;;;;14.78;7.03;;;;;;;17.29;76.08;100921.95;1689044;84;27099;-55
2022/06/11 04:00:07;;;;;;;23.67;6.75;;;;;;;17.38;75.97;100918.70;1718119;83;25468;-56
2022/06/11 04:02:35;;;;;;;10.78;6.75;;;;;;;17.43;75.95;100920.36;1714855;83;25880;-55
2022/06/11 04:05:04;;;;;;;20.12;6.83;;;;;;;17.44;75.69;100918.81;1712948;83;25773;-56
2022/06/11 04:07:33;;;;;;;16.85;7.22;;;;;;;17.46;76.05;100915.94;1713603;82;25829;-55
2022/06/11 04:10:00;;;;;;;15.32;6.80;;;;;;;17.42;75.71;100916.80;1711877;83;27456;-56
2022/06/11 04:12:27;;;;;;;17.15;7.67;;;;;;;17.46;75.74;100913.21;1717340;83;25718;-56
2022/06/11 04:14:53;;;;;;;19.17;7.42;;;;;;;17.51;75.96;100912.16;1715765;83;25786;-56
2022/06/11 04:17:28;;;;;;;23.87;9.38;;;;;;;17.51;76.10;100914.38;1715797;83;26110;-56
2022/06/11 04:19:57;;;;;;;14.33;7.90;;;;;;;17.53;76.04;100915.55;1711595;83;25764;-55
2022/06/11 04:22:24;;;;;;;11.53;6.90;;;;;;;17.60;76.05;100919.77;1711483;83;27536;-56
2022/06/11 04:24:52;;;;;;;13.03;7.05;;;;;;;17.70;75.97;100925.83;1708726;83;25781;-55
2022/06/11 04:27:21;;;;;;;13.35;6.60;;;;;;;17.82;76.03;100924.90;1713257;83;25524;-55
2022/06/11 04:29:53;;;;;;;16.82;6.87;;;;;;;17.88;75.79;100924.17;1698701;83;26128;-56
2022/06/11 04:32:23;;;;;;;12.63;6.80;;;;;;;17.93;75.58;100926.34;1691337;83;25718;-55
2022/06/11 04:34:51;;;;;;;13.43;7.72;;;;;;;17.95;75.49;100925.66;1688737;83;27464;-55
2022/06/11 04:37:22;;;;;;;15.53;6.45;;;;;;;17.94;75.30;100928.87;1682757;83;25892;-55
2022/06/11 04:39:53;;;;;;;24.23;7.60;;;;;;;17.94;75.67;100936.21;1688507;84;25730;-55
2022/06/11 04:42:21;;;;;;;13.18;6.83;;;;;;;17.94;75.06;100935.68;1714465;83;25920;-55
2022/06/11 04:44:49;;;;;;;20.48;7.00;;;;;;;17.98;75.43;100937.06;1714407;83;25825;-54
2022/06/11 04:47:21;;;;;;;17.65;6.58;;;;;;;18.01;75.41;100937.73;1705721;83;27447;-55
2022/06/11 04:49:51;;;;;;;10.58;6.67;;;;;;;18.04;75.30;100938.22;1737716;82;25834;-54
2022/06/11 04:52:19;;;;;;;11.68;6.42;;;;;;;18.08;75.28;100941.41;1730509;82;25730;-54
2022/06/11 04:54:46;;;;;;;15.20;6.50;;;;;;;18.12;75.02;100945.45;1734869;82;26744;-55
2022/06/11 04:57:14;;;;;;;11.70;6.22;;;;;;;18.14;75.25;100948.35;1730158;81;25462;-54
2022/06/11 04:59:40;;;;;;;13.08;7.15;;;;;;;18.18;75.31;100946.11;1742812;81;28186;-54
2022/06/11 05:02:09;;;;;;;18.70;7.55;;;;;;;18.22;75.25;100955.59;1737624;81;25701;-54
2022/06/11 05:04:37;;;;;;;11.57;6.67;;;;;;;18.25;75.37;100953.88;1748958;81;25923;-54
2022/06/11 05:07:05;;;;;;;19.95;7.47;;;;;;;18.31;75.18;100952.30;1746501;81;26098;-55
2022/06/11 05:09:33;;;;;;;10.35;6.45;;;;;;;18.37;75.15;100954.28;1741995;81;25526;-53
2022/06/11 05:12:01;;;;;;;13.70;6.33;;;;;;;18.40;75.43;100959.37;1745444;81;27460;-55
2022/06/11 05:14:29;;;;;;;19.30;7.03;;;;;;;18.41;75.10;100948.81;1730265;81;25753;-54
2022/06/11 05:16:56;;;;;;;13.95;6.95;;;;;;;18.46;75.00;100949.09;1735554;81;26474;-55
2022/06/11 05:19:24;;;;;;;12.55;6.62;;;;;;;18.48;75.36;100957.59;1744644;81;26318;-55
2022/06/11 05:21:52;;;;;;;12.73;6.60;;;;;;;18.50;75.67;100951.45;1738068;81;25780;-55
2022/06/11 05:24:20;;;;;;;17.60;6.92;;;;;;;18.56;75.39;100945.27;1736866;82;28307;-55
2022/06/11 05:26:52;;;;;;;13.00;7.40;;;;;;;18.64;75.60;100948.44;1738929;81;25918;-55
2022/06/11 05:29:27;;;;;;;11.95;7.22;;;;;;;18.71;75.64;100948.85;1739422;81;25573;-55
2022/06/11 05:31:55;;;;;;;19.25;6.53;;;;;;;18.76;75.39;100955.97;1743186;81;26775;-55
2022/06/11 05:34:23;;;;;;;14.18;6.20;;;;;;;18.83;75.49;100953.86;1690826;83;25831;-55
2022/06/11 05:36:50;;;;;;;14.43;6.35;;;;;;;18.88;75.53;100959.58;1688875;84;27468;-55
2022/06/11 05:39:17;;;;;;;17.27;6.45;;;;;;;18.89;75.54;100963.50;1689560;82;25835;-55
2022/06/11 05:41:45;;;;;;;13.75;6.10;;;;;;;18.96;75.25;100958.16;1704468;83;25801;-54
2022/06/11 05:44:12;;;;;;;10.78;6.08;;;;;;;19.06;75.12;100961.45;1740195;82;26844;-55
2022/06/11 05:46:39;;;;;;;17.67;6.42;;;;;;;19.16;75.03;100953.02;1730125;81;26489;-55
2022/06/11 05:49:11;;;;;;;12.18;6.62;;;;;;;19.29;74.85;100962.39;1691777;83;27472;-55
2022/06/11 05:51:43;;;;;;;14.58;6.35;;;;;;;19.42;74.66;100958.98;1724389;81;25723;-56
2022/06/11 05:54:18;;;;;;;17.65;6.75;;;;;;;19.52;74.46;100954.95;1754284;81;25881;-56
2022/06/11 05:56:47;;;;;;;18.85;9.73;;;;;;;19.62;74.22;100949.70;1754198;81;26386;-56
2022/06/11 05:59:19;;;;;;;12.60;6.80;;;;;;;19.69;74.26;100951.45;1760101;80;25886;-56
2022/06/11 06:01:47;;;;;;;14.70;5.80;;;;;;;19.79;74.18;100955.27;1755175;80;27331;-55
2022/06/11 06:04:14;;;;;;;14.30;6.67;;;;;;;19.89;73.77;100955.50;1756337;80;25841;-55
2022/06/11 06:06:40;;;;;;;22.40;8.50;;;;;;;20.01;73.65;100957.52;1756768;80;25724;-55
2022/06/11 06:09:07;;;;;;;11.68;6.40;;;;;;;20.14;73.41;100965.00;1757434;80;27063;-55
2022/06/11 06:11:35;;;;;;;17.90;6.42;;;;;;;20.27;73.31;100963.42;1761755;80;25803;-56
2022/06/11 06:14:01;;;;;;;12.45;5.85;;;;;;;20.37;72.85;100965.84;1755415;80;28284;-54
2022/06/11 06:16:30;;;;;;;11.85;5.75;;;;;;;20.43;72.41;100967.77;1758332;80;25770;-54
2022/06/11 06:19:00;;;;;;;10.32;4.95;;;;;;;20.45;72.14;100968.43;1759120;80;25726;-54
2022/06/11 06:21:32;;;;;;;8.55;4.53;;;;;;;20.51;72.16;100968.17;1740456;81;26767;-54
2022/06/11 06:23:59;;;;;;;12.65;4.95;;;;;;;20.60;72.33;100973.28;1764782;80;25794;-55
2022/06/11 06:26:26;;;;;;;11.97;5.08;;;;;;;20.74;72.15;100976.17;1759083;81;27438;-54
2022/06/11 06:28:53;;;;;;;14.43;5.08;;;;;;;20.83;72.02;100966.77;1715999;81;25877;-55
2022/06/11 06:31:20;;;;;;;14.98;5.15;;;;;;;20.93;71.98;100971.34;1697414;83;25762;-55
2022/06/11 06:33:48;;;;;;;13.13;5.22;;;;;;;20.99;71.01;100969.69;1701789;83;26355;-56
2022/06/11 06:36:15;;;;;;;9.13;4.92;;;;;;;21.05;70.75;100966.69;1701127;83;25912;-56
2022/06/11 06:38:44;;;;;;;8.45;4.67;;;;;;;21.15;70.56;100976.74;1700893;83;27496;-54
2022/06/11 06:41:13;;;;;;;12.65;4.95;;;;;;;21.32;70.10;100971.80;1717432;82;25794;-55
2022/06/11 06:43:41;;;;;;;12.20;4.80;;;;;;;21.51;69.58;100967.99;1710397;82;25864;-55
2022/06/11 06:46:08;;;;;;;10.43;3.90;;;;;;;21.68;68.85;100978.07;1722475;82;26178;-55
2022/06/11 06:48:34;;;;;;;7.60;4.22;;;;;;;21.85;68.54;100971.17;1726660;82;25901;-55
2022/06/11 06:51:02;;;;;;;10.50;4.20;;;;;;;22.10;68.05;100967.02;1720278;82;27452;-55
2022/06/11 06:53:30;;;;;;;12.82;4.40;;;;;;;22.22;68.04;100961.26;1719141;82;25930;-54
2022/06/11 06:55:58;;;;;;;13.75;4.65;;;;;;;22.34;68.28;100962.84;1730881;81;25634;-55
2022/06/11 06:58:25;;;;;;;8.35;3.75;;;;;;;22.41;67.83;100961.52;1732574;81;26074;-55
2022/06/11 07:00:52;;;;;;;10.63;3.65;;;;;;;22.44;67.21;100957.83;1732445;81;26344;-54
2022/06/11 07:03:19;;;;;;;14.65;4.58;;;;;;;22.45;67.28;100961.39;1739002;81;27477;-55
2022/06/11 07:05:46;;;;;;;9.88;3.98;;;;;;;22.46;66.97;100961.17;1725845;81;25440;-56
2022/06/11 07:08:14;;;;;;;8.25;3.58;;;;;;;22.47;66.21;100961.49;1728676;81;25872;-56
2022/06/11 07:10:51;;;;;;;11.00;4.17;;;;;;;22.47;66.20;100960.13;1725164;81;26087;-56
2022/06/11 07:13:20;;;;;;;7.12;3.60;;;;;;;22.50;65.69;100961.08;1736792;81;25851;-55
2022/06/11 07:15:50;;;;;;;10.25;3.85;;;;;;;22.52;65.80;100962.23;1727730;81;27532;-54
2022/06/11 07:18:31;;;;;;;6.47;3.33;;;;;;;22.57;65.84;100961.59;1722321;81;25800;-56
2022/06/11 07:21:01;;;;;;;18.65;3.92;;;;;;;22.60;65.70;100957.08;1735553;81;26491;-55
2022/06/11 07:23:43;;;;;;;8.43;4.05;;;;;;;22.65;65.62;100958.64;1726925;81;26054;-54
2022/06/11 07:26:16;;;;;;;9.43;3.80;;;;;;;22.68;65.25;100948.63;1729018;81;26377;-55
2022/06/11 07:28:48;;;;;;;10.13;3.40;;;;;;;22.68;64.46;100949.17;1726510;81;27435;-54
2022/06/11 07:31:16;;;;;;;9.70;3.98;;;;;;;22.69;64.60;100943.47;1740001;81;25905;-55
2022/06/11 07:33:44;;;;;;;10.65;3.65;;;;;;;22.74;64.64;100939.55;1690606;84;25792;-55
2022/06/11 07:36:12;;;;;;;8.70;3.62;;;;;;;22.81;63.96;100940.91;1718971;83;26088;-55
2022/06/11 07:38:40;;;;;;;12.13;4.15;;;;;;;22.88;63.95;100939.53;1738593;81;25802;-55
2022/06/11 07:41:07;;;;;;;8.20;3.58;;;;;;;22.95;63.87;100939.81;1746286;81;27473;-55
2022/06/11 07:43:34;;;;;;;7.17;3.83;;;;;;;23.06;63.77;100939.70;1750746;81;25844;-55
2022/06/11 07:46:01;;;;;;;11.12;3.20;;;;;;;23.16;62.76;100943.90;1742894;81;25901;-55
2022/06/11 07:48:28;;;;;;;10.60;5.17;;;;;;;23.35;62.34;100936.67;1745512;82;26108;-55
2022/06/11 07:50:55;;;;;;;8.10;3.00;;;;;;;23.55;61.58;100930.58;1728759;81;25690;-55
2022/06/11 07:53:24;;;;;;;5.05;3.02;;;;;;;23.85;61.81;100931.34;1681063;84;26929;-55
2022/06/11 07:55:54;;;;;;;13.32;3.72;;;;;;;24.11;60.96;100941.04;1685872;84;25877;-56
2022/06/11 07:58:30;;;;;;;8.23;3.67;;;;;;;24.30;60.93;100940.05;1690138;84;25799;-55
2022/06/11 08:00:58;;;;;;;8.30;3.00;;;;;;;24.48;57.10;100939.80;1702621;82;25728;-55
2022/06/11 08:03:27;;;;;;;15.05;3.08;;;;;;;24.56;57.16;100937.31;1686685;84;25784;-56
2022/06/11 08:05:56;;;;;;;7.33;2.95;;;;;;;24.60;56.10;100942.66;1686601;84;28226;-56
2022/06/11 08:08:24;;;;;;;7.67;2.83;;;;;;;24.72;56.49;100942.78;1681541;84;25906;-54
2022/06/11 08:10:51;;;;;;;12.80;3.35;;;;;;;24.85;55.68;100940.73;1672114;84;25437;-55
2022/06/11 08:13:19;;;;;;;7.03;2.60;;;;;;;24.94;54.83;100939.06;1676224;84;26247;-55
2022/06/11 08:15:49;;;;;;;5.83;3.05;;;;;;;24.95;54.89;100949.86;1684199;84;25801;-56
2022/06/11 08:18:18;;;;;;;8.85;3.22;;;;;;;25.07;54.70;100945.81;1677995;84;28136;-55
2022/06/11 08:20:46;;;;;;;13.65;3.20;;;;;;;25.20;53.99;100940.69;1679612;84;25520;-55
2022/06/11 08:23:14;;;;;;;18.25;3.70;;;;;;;25.25;54.73;100933.12;1687729;84;25828;-55
2022/06/11 08:25:41;;;;;;;15.30;3.42;;;;;;;25.29;53.68;100934.32;1671231;84;26328;-56
2022/06/11 08:28:12;;;;;;;7.67;4.00;;;;;;;25.33;53.71;100933.35;1690435;83;26015;-55
2022/06/11 08:30:40;;;;;;;3.60;2.72;;;;;;;25.45;52.82;100925.48;1713629;83;27453;-56
2022/06/11 08:33:08;;;;;;;5.22;2.40;;;;;;;25.52;52.39;100928.68;1714910;83;25714;-56
2022/06/11 08:35:36;;;;;;;14.13;2.98;;;;;;;25.65;52.67;100927.66;1717666;83;25798;-56
2022/06/11 08:38:05;;;;;;;16.65;4.33;;;;;;;25.85;52.98;100927.37;1719611;83;26167;-56
2022/06/11 08:40:37;;;;;;;7.28;3.22;;;;;;;26.04;52.15;100933.67;1713655;83;25974;-55
2022/06/11 08:43:31;;;;;;;8.80;3.10;;;;;;;26.18;51.56;100931.55;1708014;83;27513;-55
2022/06/11 08:46:03;;;;;;;11.20;3.00;;;;;;;26.25;51.76;100933.69;1712458;82;25750;-55
2022/06/11 08:48:53;;;;;;;7.97;2.60;;;;;;;26.23;50.02;100929.77;1719106;83;25791;-55
2022/06/11 08:51:37;;;;;;;6.12;2.75;;;;;;;26.27;50.77;100928.75;1709117;82;26117;-55
2022/06/11 08:54:15;;;;;;;7.75;2.55;;;;;;;26.40;50.28;100927.16;1704675;81;25520;-56
2022/06/11 08:56:53;;;;;;;8.30;2.65;;;;;;;26.43;49.14;100925.84;1710114;82;27479;-56
2022/06/11 08:59:27;;;;;;;5.92;2.70;;;;;;;26.47;48.98;100920.16;1720025;82;25511;-56
2022/06/11 09:02:21;;;;;;;6.85;3.10;;;;;;;26.53;48.87;100922.50;1709997;83;25712;-56
2022/06/11 09:05:10;;;;;;;10.72;2.60;;;;;;;26.55;48.77;100918.42;1706636;82;26284;-55
2022/06/11 09:07:42;;;;;;;7.30;3.40;;;;;;;26.43;49.05;100912.05;1704395;81;25524;-56
2022/06/11 09:10:29;;;;;;;8.65;2.58;;;;;;;26.37;48.23;100915.77;1709763;83;27497;-55
2022/06/11 09:13:14;;;;;;;5.37;3.17;;;;;;;26.17;49.41;100918.31;1706912;81;25830;-56
2022/06/11 09:15:52;;;;;;;7.72;3.05;;;;;;;26.16;49.38;100914.42;1716682;83;25942;-56
2022/06/11 09:18:36;;;;;;;5.30;3.00;;;;;;;26.11;49.75;100909.62;1715844;82;26944;-56
2022/06/11 09:21:14;;;;;;;11.63;2.58;;;;;;;26.09;49.02;100911.77;1707689;81;26158;-56
2022/06/11 09:24:07;;;;;;;5.50;2.55;;;;;;;26.22;48.30;100911.54;1707264;82;27435;-56
2022/06/11 09:27:05;;;;;;;7.50;2.72;;;;;;;26.42;48.77;100916.44;1707087;81;25808;-56
2022/06/11 09:30:10;;;;;;;7.35;2.10;;;;;;;26.60;47.59;100920.46;1714344;83;25945;-56
2022/06/11 09:33:02;;;;;;;9.58;2.37;;;;;;;26.76;46.37;100908.39;1728762;81;26293;-55
2022/06/11 09:35:54;;;;;;;5.90;1.75;;;;;;;27.45;44.95;100903.54;1717572;82;25745;-55
2022/06/11 09:38:46;;;;;;;3.22;2.00;;;;;;;28.07;44.77;100900.02;1737353;81;27643;-58
2022/06/11 09:41:51;;;;;;;5.37;1.90;;;;;;;28.76;43.25;100899.98;1692800;84;26334;-55
2022/06/11 09:44:39;;;;;;;9.58;1.98;;;;;;;29.30;42.29;100895.15;1701311;83;26294;-55
2022/06/11 09:47:26;;;;;;;6.78;1.70;;;;;;;29.82;38.14;100894.63;1663503;83;26110;-55
2022/06/11 09:50:16;;;;;;;7.65;1.75;;;;;;;29.77;38.93;100901.48;1716055;82;26216;-55
2022/06/11 09:52:58;;;;;;;2.45;1.40;;;;;;;29.51;38.85;100895.69;1739556;81;27763;-56
2022/06/11 09:55:36;;;;;;;6.53;1.60;;;;;;;29.22;38.73;100895.61;1751320;81;25754;-56
2022/06/11 09:58:42;;;;;;;6.78;1.47;;;;;;;29.27;39.48;100890.94;1751624;81;25746;-56
2022/06/11 10:01:17;;;;;;;2.85;2.20;;;;;;;29.98;39.67;100887.32;1750394;81;26123;-55
2022/06/11 10:03:52;;;;;;;7.70;2.10;;;;;;;30.85;36.32;100879.86;1751558;81;25795;-56
2022/06/11 10:06:46;;;;;;;8.25;1.35;;;;;;;31.29;35.41;100882.85;1751666;81;27549;-56
2022/06/11 10:09:21;;;;;;;3.72;1.40;;;;;;;31.36;34.65;100866.75;1737227;81;25386;-56
2022/06/11 10:11:53;;;;;;;6.22;1.40;;;;;;;31.41;33.57;100855.66;1752105;81;25750;-56
2022/06/11 10:14:41;;;;;;;2.77;1.57;;;;;;;31.01;34.65;100852.45;1752020;81;26128;-56
2022/06/11 10:17:31;;;;;;;5.50;1.20;;;;;;;31.00;35.68;100854.09;1686110;81;25868;-57
2022/06/11 10:20:24;;;;;;;6.47;1.57;;;;;;;31.64;34.30;100849.28;1717805;81;28392;-56
2022/06/11 10:22:57;;;;;;;;;;;;;;;32.48;33.53;100845.41;1754630;81;25901;-55
2022/06/11 10:25:47;;;;;;;7.58;1.00;;;;;;;33.30;31.42;100844.23;1750949;81;34808;-56
2022/06/11 10:28:46;;;;;;;5.12;1.12;;;;;;;33.81;30.70;100835.52;1746640;81;26272;-56
2022/06/11 10:31:21;;;;;;;6.28;1.45;;;;;;;34.43;29.75;100828.00;1711093;83;25720;-56
2022/06/11 10:34:23;;;;;;;4.15;1.17;;;;;;;35.11;27.86;100819.64;1710767;83;27687;-57
2022/06/11 10:37:32;;;;;;;8.17;1.20;;;;;;;35.26;26.87;100825.03;1741446;80;26142;-56
2022/06/11 10:40:29;;;;;;;11.57;1.47;;;;;;;35.61;27.71;100816.97;1692442;84;25476;-56
2022/06/11 10:43:37;;;;;;;3.58;0.80;;;;;;;36.11;27.03;100813.03;1698742;83;27510;-55
2022/06/11 10:46:04;;;;;;;2.98;1.00;;;;;;;36.63;26.08;100814.85;1745232;81;25855;-56
2022/06/11 10:48:36;;;;;;;3.15;0.78;;;;;;;36.99;24.93;100804.30;1747725;81;27532;-57
2022/06/11 10:51:17;;;;;;;1.82;1.02;;;;;;;37.09;24.79;100797.05;1754203;80;26613;-56
2022/06/11 10:54:09;;;;;;;3.12;1.12;;;;;;;37.08;24.20;100805.80;1737083;81;25252;-56
2022/06/11 10:56:59;;;;;;;2.50;0.93;;;;;;;37.08;24.43;100797.38;1712059;83;27111;-56
2022/06/11 10:59:40;;;;;;;1.37;1.00;;;;;;;37.47;24.20;100793.13;1719417;82;26132;-56
2022/06/11 11:02:40;;;;;;;3.35;1.20;;;;;;;37.91;24.68;100792.02;1719583;83;27468;-56
2022/06/11 11:05:12;;;;;;;6.10;1.20;;;;;;;38.04;22.73;100783.25;1717993;83;25680;-56
2022/06/11 11:08:02;;;;;;;2.52;1.17;;;;;;;38.36;22.42;100777.88;1720407;82;26523;-56
2022/06/11 11:10:43;;;;;;;3.85;0.88;;;;;;;38.38;20.88;100768.30;1718362;83;26083;-56
2022/06/11 11:13:42;;;;;;;7.00;1.00;;;;;;;38.25;22.10;100765.83;1719521;83;26473;-56
2022/06/11 11:16:22;;;;;;;5.47;1.10;;;;;;;38.34;21.90;100763.32;1719878;83;28571;-56
2022/06/11 11:19:22;;;;;;;5.87;1.30;;;;;;;38.33;22.67;100765.87;1719620;83;25953;-56
2022/06/11 11:22:06;;;;;;;6.28;1.10;;;;;;;38.73;22.37;100766.38;1719861;81;25754;-56
2022/06/11 11:24:41;;;;;;;2.50;1.40;;;;;;;39.22;21.95;100764.90;1718001;83;26120;-56
2022/06/11 11:27:25;;;;;;;1.55;0.98;;;;;;;39.78;21.98;100766.18;1720119;83;25825;-56
2022/06/11 11:30:12;;;;;;;1.52;0.80;;;;;;;40.31;21.23;100765.40;1694987;83;27504;-57
2022/06/11 11:32:40;;;;;;;7.83;0.93;;;;;;;40.63;21.07;100759.69;1698598;83;25833;-57
2022/06/11 11:35:27;;;;;;;11.03;1.00;;;;;;;41.01;21.27;100752.30;1695923;84;25734;-56
2022/06/11 11:38:05;;;;;;;3.77;1.00;;;;;;;41.25;19.31;100763.48;1689927;83;26248;-56
2022/06/11 11:40:54;;;;;;;3.12;0.82;;;;;;;41.30;19.73;100759.02;1697571;82;44039;-57
2022/06/11 11:43:24;;;;;;;5.00;1.00;;;;;;;41.75;19.62;100763.89;1698744;83;27861;-57
2022/06/11 11:46:02;;;;;;;1.55;0.60;;;;;;;42.10;18.27;100754.77;1704743;82;25836;-57
2022/06/11 11:48:36;;;;;;;2.25;0.78;;;;;;;41.95;18.81;100750.67;1718434;81;25694;-57
2022/06/11 11:51:11;;;;;;;2.42;1.15;;;;;;;42.43;17.96;100757.52;1701757;81;26083;-57
2022/06/11 11:53:46;;;;;;;3.50;1.10;;;;;;;42.77;17.59;100746.06;1701897;82;25732;-56
2022/06/11 11:56:42;;;;;;;2.83;0.82;;;;;;;42.28;18.01;100753.36;1705913;82;27481;-57